Middletown, Rhode Island
Current Conditions -  °F | °C
As of 1:53 PM on Friday 21 Nov 2014 (Local Time) from KUUU Reporting Station
Clear Clear  
Wind Chill: 28°   Ceiling: Unl
Heat Index: 37°   Visibility: 10mi
Dew Point: 10°   Wind: 15mph
Humidity: 33%   Direction: 310°NW
Pressure: 30.17"   Gusts: 24mph
Location:  41.55°N, 71.29°W
Report Text: KUUU 211853Z AUTO 31013G21KT 10SM CLR 03/M12 A3017 RMK AO2 PK WND 34028/1821 SLP216 T00281122
Loading
Personal Weather Stations






























Interactive Weather Map New forecast layout! Learn more

10-Day Weather Forecast

Advertisements
Track Severe Weather on mobile